createdAt,value
2022-08-06T00:00:13.682Z,0
2022-08-06T00:01:14.280Z,0
2022-08-06T00:02:14.872Z,0
2022-08-06T00:03:16.462Z,0
2022-08-06T00:04:17.069Z,0
2022-08-06T00:05:29.702Z,0
2022-08-06T00:06:20.248Z,0
2022-08-06T00:07:22.660Z,0
2022-08-06T00:08:21.468Z,0
2022-08-06T00:09:23.058Z,0
2022-08-06T00:10:29.293Z,0
2022-08-06T00:11:25.241Z,0
2022-08-06T00:12:29.672Z,0
2022-08-06T00:13:28.416Z,0
2022-08-06T00:14:30.003Z,0
2022-08-06T00:16:06.186Z,0
2022-08-06T00:16:38.855Z,0
2022-08-06T00:17:34.770Z,0
2022-08-06T00:18:35.365Z,0
2022-08-06T00:19:58.038Z,0
2022-08-06T00:20:41.858Z,0
2022-08-06T00:21:41.247Z,0
2022-08-06T00:22:41.430Z,0
2022-08-06T00:23:52.557Z,0
2022-08-06T00:24:43.641Z,0
2022-08-06T00:25:44.880Z,0
2022-08-06T00:26:51.596Z,0
2022-08-06T00:27:52.211Z,0
2022-08-06T00:28:49.251Z,0
2022-08-06T00:29:51.538Z,0
2022-08-06T00:30:51.453Z,0
2022-08-06T00:31:52.837Z,0
2022-08-06T00:32:53.430Z,0
2022-08-06T00:33:57.647Z,0
2022-08-06T00:34:55.616Z,0
2022-08-06T00:35:59.345Z,0
2022-08-06T00:36:58.787Z,0
2022-08-06T00:37:59.662Z,0
2022-08-06T00:39:00.642Z,0
2022-08-06T00:40:01.299Z,0
2022-08-06T00:41:01.896Z,0
2022-08-06T00:42:02.493Z,0
2022-08-06T00:43:06.001Z,0
2022-08-06T00:44:04.673Z,0
2022-08-06T00:45:06.264Z,0
2022-08-06T00:46:16.199Z,0
2022-08-06T00:47:23.281Z,0
2022-08-06T00:48:21.689Z,0
2022-08-06T00:49:12.627Z,0
2022-08-06T00:50:13.231Z,0
2022-08-06T00:51:18.450Z,0
2022-08-06T00:52:19.602Z,0
2022-08-06T00:53:17.642Z,0
2022-08-06T00:54:19.232Z,0
2022-08-06T00:55:19.842Z,0
2022-08-06T00:56:26.689Z,0
2022-08-06T00:57:22.698Z,0
2022-08-06T00:58:23.631Z,0
2022-08-06T00:59:25.218Z,0
2022-08-06T01:00:30.414Z,0
2022-08-06T01:01:28.440Z,0
2022-08-06T01:02:30.228Z,0
2022-08-06T01:03:41.853Z,0
2022-08-06T01:04:32.495Z,0
2022-08-06T01:06:04.856Z,0
2022-08-06T01:06:55.440Z,0
2022-08-06T01:07:51.387Z,0
2022-08-06T01:08:36.878Z,0
2022-08-06T01:09:57.343Z,0
2022-08-06T01:10:42.476Z,0
2022-08-06T01:11:41.643Z,0
2022-08-06T01:12:42.238Z,0
2022-08-06T01:14:01.826Z,0
2022-08-06T01:14:45.414Z,0
2022-08-06T01:16:07.133Z,0
2022-08-06T01:16:48.743Z,0
2022-08-06T01:17:49.290Z,0
2022-08-06T01:18:58.658Z,0
2022-08-06T01:21:56.646Z,0
2022-08-06T01:21:57.219Z,0
2022-08-06T01:22:29.801Z,0
2022-08-06T01:22:57.229Z,0
2022-08-06T01:23:57.840Z,0
2022-08-06T01:24:58.450Z,0
2022-08-06T01:25:59.268Z,0
2022-08-06T01:26:59.863Z,0
2022-08-06T01:28:00.462Z,0
2022-08-06T01:29:01.057Z,0
2022-08-06T01:30:01.796Z,0
2022-08-06T01:31:03.187Z,0
2022-08-06T01:32:03.800Z,0
2022-08-06T01:33:10.587Z,0
2022-08-06T01:34:06.974Z,0
2022-08-06T01:35:08.987Z,0
2022-08-06T01:36:08.611Z,0
2022-08-06T01:37:09.204Z,0
2022-08-06T01:38:10.403Z,0
2022-08-06T01:39:11.964Z,0
2022-08-06T01:40:12.678Z,0
2022-08-06T01:41:14.231Z,0
2022-08-06T01:42:14.826Z,0
2022-08-06T01:43:23.267Z,0
2022-08-06T01:44:17.331Z,0
2022-08-06T01:45:17.927Z,0
2022-08-06T01:46:19.515Z,0
2022-08-06T01:47:21.170Z,0
2022-08-06T01:48:21.700Z,0
2022-08-06T01:49:24.946Z,0
2022-08-06T01:50:28.161Z,0
2022-08-06T01:52:14.024Z,0
2022-08-06T01:52:30.002Z,0
2022-08-06T01:53:30.152Z,0
2022-08-06T01:54:31.226Z,0
2022-08-06T01:55:56.849Z,0
2022-08-06T01:56:56.156Z,0
2022-08-06T01:58:19.368Z,0
2022-08-06T01:58:37.085Z,0
2022-08-06T01:59:37.681Z,0
2022-08-06T02:00:38.479Z,0
2022-08-06T02:01:54.617Z,0
2022-08-06T02:02:42.145Z,0
2022-08-06T02:03:53.162Z,0
2022-08-06T02:04:43.836Z,0
2022-08-06T02:05:53.959Z,0
2022-08-06T02:06:49.365Z,0
2022-08-06T02:08:36.376Z,0
2022-08-06T02:08:49.559Z,0
2022-08-06T02:09:50.350Z,0
2022-08-06T02:10:51.938Z,0
2022-08-06T02:12:02.564Z,0
2022-08-06T02:12:54.616Z,0
2022-08-06T02:13:56.203Z,0
2022-08-06T02:14:56.795Z,0
2022-08-06T02:15:59.718Z,0
2022-08-06T02:16:58.981Z,0
2022-08-06T02:18:07.052Z,0
2022-08-06T02:19:09.774Z,0
2022-08-06T02:20:18.688Z,0
2022-08-06T02:21:18.886Z,0
2022-08-06T02:22:05.944Z,0
2022-08-06T02:23:08.566Z,0
2022-08-06T02:24:08.834Z,0
2022-08-06T02:25:14.944Z,0
2022-08-06T02:26:11.030Z,0
2022-08-06T02:27:12.619Z,0
2022-08-06T02:28:21.361Z,0
2022-08-06T02:29:15.795Z,0
2022-08-06T02:30:16.504Z,0
2022-08-06T02:31:22.668Z,0
2022-08-06T02:32:19.772Z,0
2022-08-06T02:33:20.363Z,0
2022-08-06T02:34:27.287Z,0
2022-08-06T02:35:23.582Z,0
2022-08-06T02:36:26.618Z,0
2022-08-06T02:38:02.157Z,0
2022-08-06T02:38:28.721Z,0
2022-08-06T02:39:30.063Z,0
2022-08-06T02:40:29.512Z,0
2022-08-06T02:41:30.796Z,0
2022-08-06T02:42:31.692Z,0
2022-08-06T02:43:32.398Z,0
2022-08-06T02:44:33.913Z,0
2022-08-06T02:45:35.633Z,0
2022-08-06T02:46:36.097Z,0
2022-08-06T02:47:56.392Z,0
2022-08-06T02:48:38.834Z,0
2022-08-06T02:49:40.422Z,0
2022-08-06T02:50:41.016Z,0
2022-08-06T02:52:10.750Z,0
2022-08-06T02:52:47.969Z,0
2022-08-06T02:54:04.769Z,0
2022-08-06T02:54:47.138Z,0
2022-08-06T02:55:47.978Z,0
2022-08-06T02:56:48.561Z,0
2022-08-06T02:57:51.417Z,0
2022-08-06T02:58:58.463Z,0
2022-08-06T02:59:55.378Z,0
2022-08-06T03:00:53.954Z,0
2022-08-06T03:01:55.572Z,0
2022-08-06T03:02:56.540Z,0
2022-08-06T03:03:59.743Z,0
2022-08-06T03:04:58.724Z,0
2022-08-06T03:05:59.318Z,0
2022-08-06T03:07:00.911Z,0
2022-08-06T03:08:01.504Z,0
2022-08-06T03:09:02.382Z,0
2022-08-06T03:10:02.995Z,0
2022-08-06T03:11:03.589Z,0
2022-08-06T03:12:04.185Z,0
2022-08-06T03:13:05.771Z,0
2022-08-06T03:14:13.330Z,0
2022-08-06T03:15:13.828Z,0
2022-08-06T03:16:23.449Z,0
2022-08-06T03:17:11.154Z,0
2022-08-06T03:18:11.740Z,0
2022-08-06T03:19:53.519Z,0
2022-08-06T03:20:16.514Z,0
2022-08-06T03:21:14.539Z,0
2022-08-06T03:22:18.603Z,0
2022-08-06T03:23:16.736Z,0
2022-08-06T03:24:17.333Z,0
2022-08-06T03:25:18.139Z,0
2022-08-06T03:26:19.511Z,0
2022-08-06T03:27:20.896Z,0
2022-08-06T03:28:22.765Z,0
2022-08-06T03:29:23.202Z,0
2022-08-06T03:30:31.932Z,0
2022-08-06T03:31:25.332Z,0
2022-08-06T03:32:51.626Z,0
2022-08-06T03:33:53.141Z,0
2022-08-06T03:34:30.103Z,0
2022-08-06T03:35:50.551Z,0
2022-08-06T03:36:33.281Z,0
2022-08-06T03:37:59.460Z,0
2022-08-06T03:38:37.000Z,0
2022-08-06T03:39:37.668Z,0
2022-08-06T03:40:38.271Z,5
2022-08-06T03:42:07.801Z,5
2022-08-06T03:42:43.983Z,5
2022-08-06T03:43:56.351Z,5
2022-08-06T03:44:46.265Z,5
2022-08-06T03:45:56.011Z,5
2022-08-06T03:46:47.817Z,11
2022-08-06T03:48:07.157Z,11
2022-08-06T03:48:50.818Z,11
2022-08-06T03:49:52.836Z,11
2022-08-06T03:50:53.008Z,16
2022-08-06T03:51:54.734Z,16
2022-08-06T03:52:56.194Z,16
2022-08-06T03:53:57.782Z,22
2022-08-06T03:54:59.373Z,22
2022-08-06T03:56:00.967Z,22
2022-08-06T03:57:07.742Z,28
2022-08-06T03:58:03.156Z,28
2022-08-06T03:59:04.632Z,33
2022-08-06T04:00:04.556Z,33
2022-08-06T04:01:05.359Z,33
2022-08-06T04:02:06.899Z,39
2022-08-06T04:03:08.491Z,39
2022-08-06T04:04:25.989Z,45
2022-08-06T04:05:11.558Z,45
2022-08-06T04:06:16.200Z,50
2022-08-06T04:07:14.744Z,50
2022-08-06T04:08:16.336Z,56
2022-08-06T04:09:17.506Z,56
2022-08-06T04:10:22.624Z,61
2022-08-06T04:12:14.508Z,61
2022-08-06T04:12:58.950Z,67
2022-08-06T04:14:03.723Z,67
2022-08-06T04:14:24.104Z,73
2022-08-06T04:15:25.693Z,73
2022-08-06T04:16:33.051Z,78
2022-08-06T04:17:32.679Z,78
2022-08-06T04:18:30.465Z,84
2022-08-06T04:19:32.829Z,84
2022-08-06T04:20:41.323Z,90
2022-08-06T04:23:00.011Z,95
2022-08-06T04:23:04.836Z,90
2022-08-06T04:23:38.922Z,95
2022-08-06T04:24:39.520Z,101
2022-08-06T04:25:40.158Z,101
2022-08-06T04:26:41.733Z,106
2022-08-06T04:27:53.830Z,106
2022-08-06T04:28:44.886Z,112
2022-08-06T04:29:56.899Z,112
2022-08-06T04:30:47.530Z,118
2022-08-06T04:32:11.943Z,118
2022-08-06T04:33:00.110Z,123
2022-08-06T04:33:51.674Z,123
2022-08-06T04:36:05.195Z,129
2022-08-06T04:36:05.995Z,129
2022-08-06T04:36:54.724Z,135
2022-08-06T04:37:55.323Z,135
2022-08-06T04:38:57.213Z,140
2022-08-06T04:39:58.072Z,140
2022-08-06T04:41:03.144Z,146
2022-08-06T04:42:06.032Z,146
2022-08-06T04:43:02.817Z,151
2022-08-06T04:44:03.420Z,151
2022-08-06T04:46:16.464Z,157
2022-08-06T04:46:18.103Z,157
2022-08-06T04:47:08.194Z,163
2022-08-06T04:48:09.789Z,163
2022-08-06T04:49:11.682Z,163
2022-08-06T04:50:12.977Z,168
2022-08-06T04:51:17.404Z,168
2022-08-06T04:52:35.886Z,174
2022-08-06T04:53:24.096Z,174
2022-08-06T04:54:19.350Z,180
2022-08-06T04:55:25.233Z,180
2022-08-06T04:56:22.538Z,180
2022-08-06T04:57:28.272Z,185
2022-08-06T04:58:32.774Z,185
2022-08-06T04:59:49.661Z,191
2022-08-06T05:00:33.606Z,191
2022-08-06T05:01:29.572Z,191
2022-08-06T05:02:31.185Z,196
2022-08-06T05:04:06.463Z,196
2022-08-06T05:04:33.334Z,202
2022-08-06T05:05:34.405Z,202
2022-08-06T05:06:35.873Z,202
2022-08-06T05:07:51.424Z,208
2022-08-06T05:08:37.086Z,208
2022-08-06T05:09:43.786Z,208
2022-08-06T05:10:39.283Z,213
2022-08-06T05:11:41.831Z,213
2022-08-06T05:12:42.470Z,219
2022-08-06T05:13:43.688Z,219
2022-08-06T05:14:44.564Z,219
2022-08-06T05:15:51.178Z,225
2022-08-06T05:16:52.554Z,225
2022-08-06T05:17:49.026Z,225
2022-08-06T05:19:20.638Z,230
2022-08-06T05:19:51.157Z,230
2022-08-06T05:20:51.758Z,230
2022-08-06T05:22:10.373Z,236
2022-08-06T05:22:54.942Z,236
2022-08-06T05:23:55.546Z,236
2022-08-06T05:25:02.655Z,236
2022-08-06T05:25:58.731Z,241
2022-08-06T05:26:59.333Z,241
2022-08-06T05:28:09.734Z,241
2022-08-06T05:29:02.293Z,247
2022-08-06T05:30:03.042Z,247
2022-08-06T05:31:03.644Z,247
2022-08-06T05:32:05.233Z,247
2022-08-06T05:33:07.305Z,253
2022-08-06T05:34:07.912Z,253
2022-08-06T05:35:08.512Z,253
2022-08-06T05:36:12.012Z,253
2022-08-06T05:37:11.667Z,258
2022-08-06T05:38:12.530Z,258
2022-08-06T05:39:56.905Z,258
2022-08-06T05:40:14.767Z,258
2022-08-06T05:41:15.419Z,258
2022-08-06T05:42:26.128Z,264
2022-08-06T05:43:17.572Z,270
2022-08-06T05:44:19.162Z,270
2022-08-06T05:45:19.979Z,275
2022-08-06T05:46:24.816Z,281
2022-08-06T05:47:22.915Z,281
2022-08-06T05:48:29.442Z,292
2022-08-06T05:49:57.890Z,286
2022-08-06T05:50:27.125Z,292
2022-08-06T05:51:44.941Z,298
2022-08-06T05:52:29.757Z,298
2022-08-06T05:54:02.513Z,303
2022-08-06T05:54:32.041Z,298
2022-08-06T05:55:38.187Z,303
2022-08-06T05:56:38.408Z,309
2022-08-06T05:57:40.919Z,309
2022-08-06T05:58:37.926Z,315
2022-08-06T05:59:56.921Z,320
2022-08-06T06:00:43.014Z,320
2022-08-06T06:01:41.713Z,326
2022-08-06T06:02:43.304Z,331
2022-08-06T06:03:44.969Z,337
2022-08-06T06:05:00.647Z,343
2022-08-06T06:06:06.417Z,348
2022-08-06T06:06:49.683Z,354
2022-08-06T06:08:09.686Z,365
2022-08-06T06:08:57.649Z,388
2022-08-06T06:10:02.923Z,405
2022-08-06T06:10:55.079Z,421
2022-08-06T06:12:01.520Z,444
2022-08-06T06:12:57.354Z,466
2022-08-06T06:13:58.408Z,483
2022-08-06T06:14:59.556Z,495
2022-08-06T06:16:04.489Z,500
2022-08-06T06:17:01.737Z,483
2022-08-06T06:18:02.354Z,478
2022-08-06T06:19:02.938Z,483
2022-08-06T06:20:07.076Z,489
2022-08-06T06:21:18.440Z,495
2022-08-06T06:22:07.723Z,489
2022-08-06T06:23:08.655Z,461
2022-08-06T06:24:10.250Z,466
2022-08-06T06:25:11.845Z,478
2022-08-06T06:26:32.484Z,489
2022-08-06T06:27:35.537Z,495
2022-08-06T06:28:27.652Z,506
2022-08-06T06:29:33.798Z,517
2022-08-06T06:30:33.075Z,534
2022-08-06T06:32:07.664Z,540
2022-08-06T06:32:30.904Z,551
2022-08-06T06:33:36.584Z,568
2022-08-06T06:34:25.768Z,573
2022-08-06T06:35:32.519Z,585
2022-08-06T06:36:27.981Z,596
2022-08-06T06:37:28.581Z,607
2022-08-06T06:38:30.176Z,618
2022-08-06T06:39:32.741Z,624
2022-08-06T06:40:32.703Z,635
2022-08-06T06:41:34.298Z,652
2022-08-06T06:42:35.892Z,658
2022-08-06T06:43:43.792Z,675
2022-08-06T06:45:03.419Z,691
2022-08-06T06:46:07.287Z,708
2022-08-06T06:46:44.809Z,720
2022-08-06T06:47:41.895Z,736
2022-08-06T06:48:42.676Z,759
2022-08-06T06:50:00.015Z,776
2022-08-06T06:50:45.864Z,804
2022-08-06T06:51:56.522Z,804
2022-08-06T06:52:49.060Z,810
2022-08-06T06:54:07.215Z,826
2022-08-06T06:55:00.212Z,849
2022-08-06T06:55:58.646Z,860
2022-08-06T06:56:54.441Z,883
2022-08-06T06:57:56.035Z,894
2022-08-06T06:58:56.638Z,905
2022-08-06T07:00:03.918Z,905
2022-08-06T07:01:27.404Z,911
2022-08-06T07:02:03.003Z,916
2022-08-06T07:03:02.071Z,916
2022-08-06T07:04:02.777Z,922
2022-08-06T07:05:03.414Z,922
2022-08-06T07:06:05.971Z,928
2022-08-06T07:07:07.790Z,939
2022-08-06T07:08:07.170Z,939
2022-08-06T07:09:14.480Z,961
2022-08-06T07:10:11.367Z,973
2022-08-06T07:11:11.011Z,995
2022-08-06T07:12:19.772Z,1012
2022-08-06T07:13:15.460Z,1029
2022-08-06T07:14:14.756Z,1057
2022-08-06T07:15:18.475Z,1080
2022-08-06T07:16:34.433Z,1108
2022-08-06T07:17:46.278Z,1141
2022-08-06T07:18:26.275Z,1153
2022-08-06T07:19:22.110Z,1192
2022-08-06T07:20:26.349Z,1209
2022-08-06T07:21:24.303Z,1220
2022-08-06T07:22:24.907Z,1237
2022-08-06T07:24:08.596Z,1254
2022-08-06T07:24:33.450Z,1254
2022-08-06T07:25:29.696Z,1254
2022-08-06T07:26:31.193Z,1265
2022-08-06T07:27:37.464Z,1271
2022-08-06T07:28:33.826Z,1299
2022-08-06T07:29:48.353Z,1305
2022-08-06T07:30:36.114Z,1316
2022-08-06T07:31:36.926Z,1338
2022-08-06T07:32:37.517Z,1350
2022-08-06T07:33:59.654Z,1366
2022-08-06T07:34:39.713Z,1400
2022-08-06T07:35:41.308Z,1434
2022-08-06T07:36:41.913Z,1496
2022-08-06T07:37:43.650Z,1524
2022-08-06T07:38:44.325Z,1541
2022-08-06T07:39:45.994Z,1569
2022-08-06T07:40:52.976Z,1586
2022-08-06T07:42:07.174Z,1597
2022-08-06T07:42:50.174Z,1620
2022-08-06T07:43:51.794Z,1648
2022-08-06T07:44:56.320Z,1659
2022-08-06T07:45:55.231Z,1665
2022-08-06T07:46:54.585Z,1648
2022-08-06T07:47:56.019Z,1681
2022-08-06T07:48:56.692Z,1771
2022-08-06T07:50:00.944Z,1816
2022-08-06T07:50:58.905Z,1867
2022-08-06T07:51:59.507Z,1788
2022-08-06T07:53:00.825Z,1890
2022-08-06T07:54:06.970Z,1923
2022-08-06T07:55:03.208Z,1951
2022-08-06T07:56:03.808Z,1968
2022-08-06T07:57:04.413Z,1968
2022-08-06T07:58:05.038Z,1963
2022-08-06T07:59:06.835Z,2002
2022-08-06T08:00:07.252Z,2047
2022-08-06T08:01:07.845Z,2092
2022-08-06T08:02:09.408Z,2120
2022-08-06T08:03:09.999Z,2109
2022-08-06T08:04:34.257Z,2041
2022-08-06T08:05:12.212Z,1923
2022-08-06T08:06:13.806Z,1946
2022-08-06T08:07:14.411Z,1957
2022-08-06T08:08:15.009Z,1985
2022-08-06T08:09:15.611Z,2013
2022-08-06T08:10:17.206Z,1940
2022-08-06T08:11:17.810Z,2019
2022-08-06T08:12:29.511Z,2081
2022-08-06T08:13:20.025Z,2210
2022-08-06T08:14:22.076Z,2233
2022-08-06T08:15:23.321Z,2233
2022-08-06T08:16:28.696Z,2092
2022-08-06T08:17:34.386Z,2266
2022-08-06T08:18:27.507Z,2233
2022-08-06T08:19:28.111Z,2188
2022-08-06T08:20:34.678Z,2120
2022-08-06T08:21:31.305Z,2058
2022-08-06T08:22:32.581Z,2115
2022-08-06T08:23:37.432Z,2120
2022-08-06T08:24:34.782Z,2126
2022-08-06T08:25:40.345Z,2115
2022-08-06T08:27:03.518Z,2176
2022-08-06T08:27:39.095Z,2255
2022-08-06T08:28:40.419Z,2255
2022-08-06T08:29:41.587Z,2317
2022-08-06T08:30:43.181Z,2368
2022-08-06T08:31:59.778Z,2475
2022-08-06T08:32:46.529Z,2542
2022-08-06T08:33:46.979Z,2581
2022-08-06T08:34:52.316Z,2593
2022-08-06T08:36:00.032Z,2587
2022-08-06T08:36:51.010Z,2548
2022-08-06T08:37:51.615Z,2458
2022-08-06T08:38:53.136Z,2418
2022-08-06T08:39:55.679Z,2390
2022-08-06T08:40:55.337Z,2401
2022-08-06T08:41:56.933Z,2475
2022-08-06T08:42:57.554Z,2548
2022-08-06T08:44:00.399Z,2615
2022-08-06T08:44:59.764Z,2621
2022-08-06T08:46:00.368Z,2683
2022-08-06T08:47:00.970Z,2750
2022-08-06T08:48:01.569Z,2846
2022-08-06T08:49:04.173Z,2998
2022-08-06T08:50:04.760Z,2970
2022-08-06T08:51:06.355Z,2941
2022-08-06T08:52:11.152Z,2947
2022-08-06T08:53:09.021Z,2964
2022-08-06T08:54:09.706Z,2958
2022-08-06T08:57:09.514Z,2919
2022-08-06T08:57:10.865Z,2930
2022-08-06T08:58:39.359Z,2891
2022-08-06T08:58:40.303Z,2913
2022-08-06T08:59:59.416Z,2868
2022-08-06T09:00:26.319Z,2840
2022-08-06T09:01:53.157Z,2874
2022-08-06T09:02:24.311Z,2868
2022-08-06T09:03:23.128Z,2885
2022-08-06T09:04:24.744Z,2874
2022-08-06T09:05:25.294Z,2835
2022-08-06T09:06:29.120Z,2806
2022-08-06T09:07:36.431Z,2812
2022-08-06T09:09:02.781Z,2947
2022-08-06T09:09:32.347Z,3217
2022-08-06T09:10:32.368Z,3330
2022-08-06T09:12:04.904Z,3279
2022-08-06T09:12:45.177Z,3183
2022-08-06T09:13:51.447Z,3161
2022-08-06T09:14:38.607Z,3189
2022-08-06T09:15:40.572Z,3273
2022-08-06T09:16:50.565Z,3369
2022-08-06T09:18:26.144Z,3138
2022-08-06T09:18:44.570Z,714
2022-08-06T09:19:45.196Z,2677
2022-08-06T09:20:47.027Z,3600
2022-08-06T09:21:51.098Z,3549
2022-08-06T09:22:48.990Z,3425
2022-08-06T09:23:58.466Z,3279
2022-08-06T09:24:51.188Z,3105
2022-08-06T09:25:52.747Z,3060
2022-08-06T09:26:55.255Z,3037
2022-08-06T09:27:55.347Z,3178
2022-08-06T09:28:56.903Z,1265
2022-08-06T09:30:04.678Z,1569
2022-08-06T09:30:59.104Z,3285
2022-08-06T09:32:00.508Z,990
2022-08-06T09:33:03.928Z,663
2022-08-06T09:34:28.531Z,618
2022-08-06T09:35:05.001Z,641
2022-08-06T09:36:04.875Z,2199
2022-08-06T09:37:06.251Z,3088
2022-08-06T09:38:06.867Z,3093
2022-08-06T09:39:11.307Z,3155
2022-08-06T09:40:13.729Z,3217
2022-08-06T09:41:15.334Z,3268
2022-08-06T09:42:11.282Z,3251
2022-08-06T09:43:12.879Z,3324
2022-08-06T09:44:35.430Z,3436
2022-08-06T09:45:17.505Z,3504
2022-08-06T09:46:16.692Z,3555
2022-08-06T09:47:22.223Z,3571
2022-08-06T09:48:22.396Z,3633
2022-08-06T09:49:49.025Z,3712
2022-08-06T09:50:23.880Z,3763
2022-08-06T09:51:50.229Z,3808
2022-08-06T09:52:26.230Z,3881
2022-08-06T09:53:27.827Z,4016
2022-08-06T09:54:29.421Z,4050
2022-08-06T09:55:30.026Z,3976
2022-08-06T09:56:31.623Z,3830
2022-08-06T09:57:36.299Z,3678
2022-08-06T09:58:33.822Z,3588
2022-08-06T09:59:34.428Z,3577
2022-08-06T10:00:35.029Z,3712
2022-08-06T10:01:36.760Z,3729
2022-08-06T10:02:37.232Z,3616
2022-08-06T10:04:03.220Z,3403
2022-08-06T10:04:42.310Z,1485
2022-08-06T10:05:50.086Z,3583
2022-08-06T10:06:41.685Z,1260
2022-08-06T10:07:42.310Z,990
2022-08-06T10:08:43.112Z,1001
2022-08-06T10:09:45.150Z,3690
2022-08-06T10:10:45.403Z,3611
2022-08-06T10:11:49.905Z,2430
2022-08-06T10:12:48.521Z,4449
2022-08-06T10:13:49.124Z,4398
2022-08-06T10:14:50.119Z,4336
2022-08-06T10:16:00.712Z,4410
2022-08-06T10:16:52.363Z,4387
2022-08-06T10:17:53.067Z,4331
2022-08-06T10:18:55.946Z,4201
2022-08-06T10:19:55.184Z,4134
2022-08-06T10:20:55.789Z,4106
2022-08-06T10:21:56.394Z,3988
2022-08-06T10:22:57.627Z,4235
2022-08-06T10:23:58.594Z,3318
2022-08-06T10:24:59.434Z,1012
2022-08-06T10:26:00.037Z,1006
2022-08-06T10:27:02.893Z,995
2022-08-06T10:28:03.228Z,1046
2022-08-06T10:29:03.838Z,1125
2022-08-06T10:30:04.454Z,3262
2022-08-06T10:31:05.059Z,3746
2022-08-06T10:32:12.163Z,3628
2022-08-06T10:33:08.801Z,3436
2022-08-06T10:34:09.842Z,3380
2022-08-06T10:35:11.973Z,3408
2022-08-06T10:36:11.064Z,3403
2022-08-06T10:37:49.479Z,3470
2022-08-06T10:38:15.041Z,3538
2022-08-06T10:40:09.867Z,3600
2022-08-06T10:40:18.635Z,3628
2022-08-06T10:41:28.056Z,3684
2022-08-06T10:42:22.102Z,3774
2022-08-06T10:43:21.014Z,3847
2022-08-06T10:44:21.623Z,3639
2022-08-06T10:45:23.218Z,3993
2022-08-06T10:46:26.063Z,4016
2022-08-06T10:49:00.181Z,4106
2022-08-06T10:50:23.338Z,4179
2022-08-06T10:50:31.125Z,4156
2022-08-06T10:50:40.601Z,4038
2022-08-06T10:51:57.123Z,3965
2022-08-06T10:52:33.422Z,3943
2022-08-06T10:54:01.610Z,3960
2022-08-06T10:54:35.625Z,3937
2022-08-06T10:55:44.315Z,3976
2022-08-06T10:56:44.255Z,4095
2022-08-06T10:57:39.544Z,4291
2022-08-06T10:58:41.050Z,4533
2022-08-06T10:59:42.035Z,4646
2022-08-06T11:00:44.948Z,4674
2022-08-06T11:01:47.104Z,4691
2022-08-06T11:02:56.365Z,4725
2022-08-06T11:03:47.275Z,4820
2022-08-06T11:04:47.881Z,4955
2022-08-06T11:05:54.031Z,4966
2022-08-06T11:06:52.491Z,4848
2022-08-06T11:08:09.362Z,4753
2022-08-06T11:08:59.260Z,4831
2022-08-06T11:09:59.415Z,4966
2022-08-06T11:10:56.519Z,5045
2022-08-06T11:12:06.272Z,5146
2022-08-06T11:12:58.721Z,5203
2022-08-06T11:14:03.152Z,5186
2022-08-06T11:15:01.573Z,5169
2022-08-06T11:16:02.322Z,3431
2022-08-06T11:17:03.922Z,4657
2022-08-06T11:18:05.489Z,5101
2022-08-06T11:19:07.261Z,1164
2022-08-06T11:20:13.997Z,1136
2022-08-06T11:21:09.337Z,4078
2022-08-06T11:22:12.019Z,5135
2022-08-06T11:23:12.163Z,5270
2022-08-06T11:24:13.758Z,5366
2022-08-06T11:25:26.801Z,5298
2022-08-06T11:26:16.313Z,4843
2022-08-06T11:27:16.931Z,3560
2022-08-06T11:28:18.532Z,3577
2022-08-06T11:29:19.303Z,4702
2022-08-06T11:30:26.680Z,4730
2022-08-06T11:31:20.536Z,4764
2022-08-06T11:32:22.136Z,4820
2022-08-06T11:33:23.733Z,4275
2022-08-06T11:34:34.460Z,5045
2022-08-06T11:35:26.929Z,5124
2022-08-06T11:36:28.526Z,3684
2022-08-06T11:38:03.495Z,5371
2022-08-06T11:38:30.728Z,5298
2022-08-06T11:39:34.405Z,5236
2022-08-06T11:40:32.932Z,5113
2022-08-06T11:41:50.204Z,4876
2022-08-06T11:42:34.253Z,4584
2022-08-06T11:43:35.856Z,4314
2022-08-06T11:44:37.448Z,4224
2022-08-06T11:46:20.512Z,4280
2022-08-06T11:46:47.810Z,4331
2022-08-06T11:47:40.592Z,4415
2022-08-06T11:48:41.543Z,4539
2022-08-06T11:49:43.763Z,4702
2022-08-06T11:50:43.745Z,4972
2022-08-06T11:51:44.502Z,5113
2022-08-06T11:52:45.166Z,1130
2022-08-06T11:53:46.574Z,894
2022-08-06T11:54:47.920Z,1113
2022-08-06T11:55:48.543Z,5636
2022-08-06T11:56:49.150Z,5613
2022-08-06T11:57:50.924Z,5580
2022-08-06T11:58:51.694Z,5445
2022-08-06T11:59:52.596Z,4156
2022-08-06T12:00:53.198Z,2722
2022-08-06T12:01:53.879Z,2778
2022-08-06T12:02:56.058Z,1141
2022-08-06T12:03:56.029Z,1063
2022-08-06T12:04:56.631Z,1051
2022-08-06T12:05:58.442Z,1299
2022-08-06T12:06:58.931Z,4449
2022-08-06T12:07:59.529Z,4415
2022-08-06T12:09:00.135Z,4151
2022-08-06T12:10:01.734Z,4792
2022-08-06T12:11:02.396Z,4876
2022-08-06T12:12:02.999Z,5051
2022-08-06T12:13:03.605Z,5186
2022-08-06T12:14:33.996Z,5270
2022-08-06T12:15:11.269Z,5191
2022-08-06T12:16:12.288Z,5130
2022-08-06T12:17:09.998Z,5051
2022-08-06T12:18:19.380Z,4916
2022-08-06T12:19:12.201Z,4770
2022-08-06T12:20:13.224Z,4460
2022-08-06T12:21:14.399Z,4151
2022-08-06T12:22:15.601Z,3971
2022-08-06T12:23:16.221Z,3909
2022-08-06T12:24:17.820Z,3999
2022-08-06T12:25:18.437Z,4173
2022-08-06T12:26:33.001Z,4398
2022-08-06T12:27:24.308Z,4595
2022-08-06T12:28:23.188Z,4831
2022-08-06T12:29:41.759Z,5079
2022-08-06T12:30:36.152Z,5225
2022-08-06T12:31:36.058Z,5315
2022-08-06T12:32:29.135Z,5214
2022-08-06T12:33:29.736Z,5090
2022-08-06T12:34:32.327Z,4933
2022-08-06T12:35:33.186Z,4770
2022-08-06T12:36:35.231Z,4151
2022-08-06T12:37:41.448Z,3583
2022-08-06T12:38:36.993Z,3431
2022-08-06T12:39:45.645Z,4550
2022-08-06T12:40:39.260Z,4370
2022-08-06T12:41:45.128Z,4241
2022-08-06T12:42:53.084Z,4190
2022-08-06T12:43:56.546Z,4252
2022-08-06T12:44:56.926Z,1738
2022-08-06T12:46:07.201Z,1203
2022-08-06T12:46:47.408Z,1096
2022-08-06T12:48:03.465Z,1068
2022-08-06T12:48:50.613Z,1063
2022-08-06T12:49:51.625Z,1057
2022-08-06T12:50:52.250Z,1051
2022-08-06T12:51:54.714Z,1057
2022-08-06T12:52:54.446Z,1063
2022-08-06T12:53:55.064Z,1068
2022-08-06T12:54:55.669Z,1080
2022-08-06T12:55:57.422Z,1080
2022-08-06T12:56:58.422Z,1080
2022-08-06T12:58:02.555Z,1085
2022-08-06T12:59:00.619Z,1085
2022-08-06T13:00:01.238Z,1096
2022-08-06T13:01:01.889Z,1113
2022-08-06T13:02:07.853Z,1125
2022-08-06T13:03:04.066Z,1164
2022-08-06T13:04:08.860Z,1209
2022-08-06T13:05:06.351Z,1243
2022-08-06T13:06:07.947Z,1265
2022-08-06T13:07:14.190Z,1271
2022-08-06T13:08:10.162Z,1299
2022-08-06T13:09:10.788Z,1344
2022-08-06T13:10:34.938Z,1620
2022-08-06T13:11:12.985Z,1822
2022-08-06T13:12:19.768Z,1350
2022-08-06T13:14:14.181Z,1299
2022-08-06T13:14:18.955Z,1451
2022-08-06T13:15:22.527Z,2081
2022-08-06T13:16:23.053Z,4702
2022-08-06T13:17:54.979Z,4933
2022-08-06T13:18:41.623Z,4798
2022-08-06T13:19:32.437Z,4747
2022-08-06T13:20:32.999Z,4646
2022-08-06T13:21:56.388Z,4095
2022-08-06T13:22:28.602Z,4398
2022-08-06T13:23:30.199Z,4263
2022-08-06T13:24:34.581Z,4089
2022-08-06T13:25:52.778Z,4055
2022-08-06T13:26:34.998Z,4151
2022-08-06T13:27:35.599Z,4291
2022-08-06T13:28:38.480Z,4443
2022-08-06T13:30:33.520Z,4623
2022-08-06T13:30:38.883Z,4758
2022-08-06T13:31:58.564Z,4843
2022-08-06T13:32:41.617Z,4899
2022-08-06T13:34:04.016Z,4972
2022-08-06T13:34:44.386Z,5090
2022-08-06T13:35:45.017Z,5186
2022-08-06T13:36:50.007Z,5214
2022-08-06T13:37:57.161Z,5259
2022-08-06T13:38:49.820Z,5214
2022-08-06T13:39:50.876Z,5580
2022-08-06T13:41:03.358Z,5872
2022-08-06T13:41:55.981Z,6035
2022-08-06T13:42:53.976Z,2188
2022-08-06T13:43:55.845Z,2086
2022-08-06T13:44:57.009Z,1563
2022-08-06T13:46:00.317Z,1462
2022-08-06T13:46:59.209Z,1440
2022-08-06T13:48:05.803Z,1361
2022-08-06T13:49:04.727Z,1310
2022-08-06T13:50:08.372Z,1338
2022-08-06T13:51:05.598Z,1209
2022-08-06T13:52:07.196Z,1158
2022-08-06T13:53:07.798Z,1108
2022-08-06T13:54:16.332Z,1051
2022-08-06T13:55:10.996Z,984
2022-08-06T13:56:11.609Z,928
2022-08-06T13:57:13.206Z,894
2022-08-06T13:58:13.825Z,871
2022-08-06T13:59:17.040Z,826
2022-08-06T14:00:17.017Z,804
2022-08-06T14:01:18.628Z,787
2022-08-06T14:02:19.216Z,781
2022-08-06T14:03:19.871Z,781
2022-08-06T14:04:20.827Z,781
2022-08-06T14:05:23.794Z,793
2022-08-06T14:06:23.023Z,810